sensor_id;sensor_type;location;lat;lon;timestamp;temperature;humidity
43185;DHT22;28803;52.308;19.096;2023-04-15T00:01:13;9.40;99.90
43185;DHT22;28803;52.308;19.096;2023-04-15T00:03:45;9.40;99.90
43185;DHT22;28803;52.308;19.096;2023-04-15T00:06:15;9.50;99.90
43185;DHT22;28803;52.308;19.096;2023-04-15T00:08:42;9.40;99.90
43185;DHT22;28803;52.308;19.096;2023-04-15T00:11:09;9.40;99.90
43185;DHT22;28803;52.308;19.096;2023-04-15T00:13:37;9.40;99.90
43185;DHT22;28803;52.308;19.096;2023-04-15T00:16:06;9.40;99.90
43185;DHT22;28803;52.308;19.096;2023-04-15T00:18:34;9.40;99.90
43185;DHT22;28803;52.308;19.096;2023-04-15T00:21:03;9.40;99.90
43185;DHT22;28803;52.308;19.096;2023-04-15T00:23:30;9.40;99.90
43185;DHT22;28803;52.308;19.096;2023-04-15T00:26:00;9.40;99.90
43185;DHT22;28803;52.308;19.096;2023-04-15T00:28:27;9.30;99.90
43185;DHT22;28803;52.308;19.096;2023-04-15T00:30:55;9.30;99.90
43185;DHT22;28803;52.308;19.096;2023-04-15T00:33:22;9.30;99.90
43185;DHT22;28803;52.308;19.096;2023-04-15T00:35:50;9.20;99.90
43185;DHT22;28803;52.308;19.096;2023-04-15T00:38:17;9.20;99.90
43185;DHT22;28803;52.308;19.096;2023-04-15T00:40:45;9.10;99.90
43185;DHT22;28803;52.308;19.096;2023-04-15T00:43:12;9.10;99.90
43185;DHT22;28803;52.308;19.096;2023-04-15T00:45:39;9.20;99.90
43185;DHT22;28803;52.308;19.096;2023-04-15T00:48:07;9.10;99.90
43185;DHT22;28803;52.308;19.096;2023-04-15T00:50:35;9.10;1.00
43185;DHT22;28803;52.308;19.096;2023-04-15T00:53:02;9.10;1.00
43185;DHT22;28803;52.308;19.096;2023-04-15T00:55:30;9.10;1.00
43185;DHT22;28803;52.308;19.096;2023-04-15T00:57:57;9.20;1.00
43185;DHT22;28803;52.308;19.096;2023-04-15T01:00:25;9.20;1.00
43185;DHT22;28803;52.308;19.096;2023-04-15T01:02:52;9.20;99.90
43185;DHT22;28803;52.308;19.096;2023-04-15T01:05:20;9.30;99.90
43185;DHT22;28803;52.308;19.096;2023-04-15T01:07:47;9.30;99.90
43185;DHT22;28803;52.308;19.096;2023-04-15T01:10:15;9.30;99.90
43185;DHT22;28803;52.308;19.096;2023-04-15T01:12:42;9.30;99.90
43185;DHT22;28803;52.308;19.096;2023-04-15T01:15:09;9.40;99.90
43185;DHT22;28803;52.308;19.096;2023-04-15T01:17:38;9.40;99.90
43185;DHT22;28803;52.308;19.096;2023-04-15T01:20:06;9.40;99.90
43185;DHT22;28803;52.308;19.096;2023-04-15T01:22:35;9.40;99.90
43185;DHT22;28803;52.308;19.096;2023-04-15T01:25:09;9.40;99.90
43185;DHT22;28803;52.308;19.096;2023-04-15T01:27:38;9.40;99.90
43185;DHT22;28803;52.308;19.096;2023-04-15T01:30:08;9.40;99.90
43185;DHT22;28803;52.308;19.096;2023-04-15T01:32:36;9.40;99.90
43185;DHT22;28803;52.308;19.096;2023-04-15T01:35:04;9.40;99.90
43185;DHT22;28803;52.308;19.096;2023-04-15T01:37:32;9.40;99.90
43185;DHT22;28803;52.308;19.096;2023-04-15T01:39:59;9.40;1.00
43185;DHT22;28803;52.308;19.096;2023-04-15T01:42:26;9.40;1.00
43185;DHT22;28803;52.308;19.096;2023-04-15T01:44:54;9.40;1.00
43185;DHT22;28803;52.308;19.096;2023-04-15T01:47:21;9.40;1.00
43185;DHT22;28803;52.308;19.096;2023-04-15T01:49:49;9.30;1.00
43185;DHT22;28803;52.308;19.096;2023-04-15T01:52:16;9.40;1.00
43185;DHT22;28803;52.308;19.096;2023-04-15T01:54:44;9.40;1.00
43185;DHT22;28803;52.308;19.096;2023-04-15T01:57:11;9.40;1.00
43185;DHT22;28803;52.308;19.096;2023-04-15T01:59:38;9.40;1.00
43185;DHT22;28803;52.308;19.096;2023-04-15T02:02:06;9.40;1.00
43185;DHT22;28803;52.308;19.096;2023-04-15T02:04:34;9.40;1.00
43185;DHT22;28803;52.308;19.096;2023-04-15T02:07:01;9.50;1.00
43185;DHT22;28803;52.308;19.096;2023-04-15T02:09:29;9.50;1.00
43185;DHT22;28803;52.308;19.096;2023-04-15T02:11:56;9.40;1.00
43185;DHT22;28803;52.308;19.096;2023-04-15T02:14:24;9.40;1.00
43185;DHT22;28803;52.308;19.096;2023-04-15T02:16:51;9.40;1.00
43185;DHT22;28803;52.308;19.096;2023-04-15T02:19:18;9.40;1.00
43185;DHT22;28803;52.308;19.096;2023-04-15T02:21:45;9.40;1.00
43185;DHT22;28803;52.308;19.096;2023-04-15T02:24:12;9.30;1.00
43185;DHT22;28803;52.308;19.096;2023-04-15T02:26:39;9.30;1.00
43185;DHT22;28803;52.308;19.096;2023-04-15T02:29:07;9.30;1.00
43185;DHT22;28803;52.308;19.096;2023-04-15T02:31:34;9.20;1.00
43185;DHT22;28803;52.308;19.096;2023-04-15T02:34:06;9.10;1.00
43185;DHT22;28803;52.308;19.096;2023-04-15T02:36:34;8.90;1.00
43185;DHT22;28803;52.308;19.096;2023-04-15T02:39:01;8.90;1.00
43185;DHT22;28803;52.308;19.096;2023-04-15T02:41:29;8.90;1.00
43185;DHT22;28803;52.308;19.096;2023-04-15T02:43:56;8.80;1.00
43185;DHT22;28803;52.308;19.096;2023-04-15T02:46:23;8.90;1.00
43185;DHT22;28803;52.308;19.096;2023-04-15T02:48:51;8.80;1.20
43185;DHT22;28803;52.308;19.096;2023-04-15T02:51:20;8.80;10.90
43185;DHT22;28803;52.308;19.096;2023-04-15T02:53:49;8.80;15.10
43185;DHT22;28803;52.308;19.096;2023-04-15T02:56:16;8.80;19.80
43185;DHT22;28803;52.308;19.096;2023-04-15T02:58:45;8.80;25.40
43185;DHT22;28803;52.308;19.096;2023-04-15T03:01:12;8.70;32.50
43185;DHT22;28803;52.308;19.096;2023-04-15T03:03:40;8.70;46.50
43185;DHT22;28803;52.308;19.096;2023-04-15T03:06:08;8.70;47.60
43185;DHT22;28803;52.308;19.096;2023-04-15T03:08:35;8.70;55.00
43185;DHT22;28803;52.308;19.096;2023-04-15T03:11:03;8.70;60.50
43185;DHT22;28803;52.308;19.096;2023-04-15T03:13:31;8.70;66.90
43185;DHT22;28803;52.308;19.096;2023-04-15T03:15:58;8.60;73.40
43185;DHT22;28803;52.308;19.096;2023-04-15T03:18:25;8.60;80.20
43185;DHT22;28803;52.308;19.096;2023-04-15T03:20:52;8.60;86.20
43185;DHT22;28803;52.308;19.096;2023-04-15T03:23:20;8.60;90.00
43185;DHT22;28803;52.308;19.096;2023-04-15T03:25:47;8.60;92.60
43185;DHT22;28803;52.308;19.096;2023-04-15T03:28:14;8.60;94.10
43185;DHT22;28803;52.308;19.096;2023-04-15T03:30:41;8.60;95.80
43185;DHT22;28803;52.308;19.096;2023-04-15T03:33:09;8.60;97.00
43185;DHT22;28803;52.308;19.096;2023-04-15T03:35:37;8.60;97.90
43185;DHT22;28803;52.308;19.096;2023-04-15T03:38:04;8.50;99.50
43185;DHT22;28803;52.308;19.096;2023-04-15T03:40:33;8.50;99.90
43185;DHT22;28803;52.308;19.096;2023-04-15T03:43:01;8.50;99.90
43185;DHT22;28803;52.308;19.096;2023-04-15T03:45:28;8.60;99.90
43185;DHT22;28803;52.308;19.096;2023-04-15T03:47:55;8.50;99.90
43185;DHT22;28803;52.308;19.096;2023-04-15T03:50:37;8.50;99.90
43185;DHT22;28803;52.308;19.096;2023-04-15T03:53:04;8.50;99.90
43185;DHT22;28803;52.308;19.096;2023-04-15T03:55:31;8.50;99.90
43185;DHT22;28803;52.308;19.096;2023-04-15T03:57:58;8.50;99.90
43185;DHT22;28803;52.308;19.096;2023-04-15T04:00:26;8.50;99.90
43185;DHT22;28803;52.308;19.096;2023-04-15T04:02:53;8.50;99.90
43185;DHT22;28803;52.308;19.096;2023-04-15T04:05:20;8.50;99.90
43185;DHT22;28803;52.308;19.096;2023-04-15T04:07:47;8.50;99.90
43185;DHT22;28803;52.308;19.096;2023-04-15T04:10:15;8.50;99.90
43185;DHT22;28803;52.308;19.096;2023-04-15T04:12:42;8.50;99.90
43185;DHT22;28803;52.308;19.096;2023-04-15T04:15:09;8.50;99.90
43185;DHT22;28803;52.308;19.096;2023-04-15T04:17:37;8.50;99.90
43185;DHT22;28803;52.308;19.096;2023-04-15T04:20:05;8.40;99.90
43185;DHT22;28803;52.308;19.096;2023-04-15T04:22:37;8.50;99.90
43185;DHT22;28803;52.308;19.096;2023-04-15T04:25:06;8.50;99.90
43185;DHT22;28803;52.308;19.096;2023-04-15T04:27:35;8.50;99.90
43185;DHT22;28803;52.308;19.096;2023-04-15T04:30:02;8.50;99.90
43185;DHT22;28803;52.308;19.096;2023-04-15T04:32:29;8.50;99.90
43185;DHT22;28803;52.308;19.096;2023-04-15T04:34:57;8.50;99.90
43185;DHT22;28803;52.308;19.096;2023-04-15T04:37:24;8.50;99.90
43185;DHT22;28803;52.308;19.096;2023-04-15T04:39:51;8.50;99.90
43185;DHT22;28803;52.308;19.096;2023-04-15T04:42:19;8.50;99.90
43185;DHT22;28803;52.308;19.096;2023-04-15T04:44:46;8.50;99.90
43185;DHT22;28803;52.308;19.096;2023-04-15T04:47:13;8.50;99.90
43185;DHT22;28803;52.308;19.096;2023-04-15T04:49:40;8.50;99.90
43185;DHT22;28803;52.308;19.096;2023-04-15T04:52:07;8.50;99.90
43185;DHT22;28803;52.308;19.096;2023-04-15T04:54:35;8.50;99.90
43185;DHT22;28803;52.308;19.096;2023-04-15T04:57:02;8.50;99.90
43185;DHT22;28803;52.308;19.096;2023-04-15T04:59:29;8.50;99.90
43185;DHT22;28803;52.308;19.096;2023-04-15T05:01:57;8.50;99.90
43185;DHT22;28803;52.308;19.096;2023-04-15T05:04:24;8.50;99.90
43185;DHT22;28803;52.308;19.096;2023-04-15T05:06:52;8.50;99.90
43185;DHT22;28803;52.308;19.096;2023-04-15T05:09:19;8.50;99.90
43185;DHT22;28803;52.308;19.096;2023-04-15T05:11:46;8.50;99.90
43185;DHT22;28803;52.308;19.096;2023-04-15T05:14:13;8.50;99.90
43185;DHT22;28803;52.308;19.096;2023-04-15T05:16:41;8.50;99.90
43185;DHT22;28803;52.308;19.096;2023-04-15T05:19:08;8.50;99.90
43185;DHT22;28803;52.308;19.096;2023-04-15T05:21:36;8.50;99.90
43185;DHT22;28803;52.308;19.096;2023-04-15T05:24:05;8.50;99.90
43185;DHT22;28803;52.308;19.096;2023-04-15T05:26:33;8.50;99.90
43185;DHT22;28803;52.308;19.096;2023-04-15T05:29:00;8.50;99.90
43185;DHT22;28803;52.308;19.096;2023-04-15T05:31:28;8.50;99.90
43185;DHT22;28803;52.308;19.096;2023-04-15T05:33:55;8.50;99.90
43185;DHT22;28803;52.308;19.096;2023-04-15T05:36:22;8.50;99.90
43185;DHT22;28803;52.308;19.096;2023-04-15T05:38:49;8.50;99.90
43185;DHT22;28803;52.308;19.096;2023-04-15T05:41:17;8.50;99.90
43185;DHT22;28803;52.308;19.096;2023-04-15T05:43:45;8.50;99.90
43185;DHT22;28803;52.308;19.096;2023-04-15T05:46:13;8.50;99.90
43185;DHT22;28803;52.308;19.096;2023-04-15T05:48:40;8.50;99.90
43185;DHT22;28803;52.308;19.096;2023-04-15T05:51:07;8.50;99.90
43185;DHT22;28803;52.308;19.096;2023-04-15T05:53:35;8.50;99.90
43185;DHT22;28803;52.308;19.096;2023-04-15T05:56:02;8.50;99.90
43185;DHT22;28803;52.308;19.096;2023-04-15T05:58:29;8.50;99.90
43185;DHT22;28803;52.308;19.096;2023-04-15T06:00:57;8.60;99.90
43185;DHT22;28803;52.308;19.096;2023-04-15T06:03:24;8.60;99.90
43185;DHT22;28803;52.308;19.096;2023-04-15T06:05:52;8.60;99.90
43185;DHT22;28803;52.308;19.096;2023-04-15T06:08:20;8.60;99.90
43185;DHT22;28803;52.308;19.096;2023-04-15T06:10:47;8.60;99.90
43185;DHT22;28803;52.308;19.096;2023-04-15T06:13:14;8.60;99.90
43185;DHT22;28803;52.308;19.096;2023-04-15T06:15:43;8.60;99.90
43185;DHT22;28803;52.308;19.096;2023-04-15T06:18:10;8.60;99.90
43185;DHT22;28803;52.308;19.096;2023-04-15T06:20:37;8.60;99.90
43185;DHT22;28803;52.308;19.096;2023-04-15T06:23:05;8.60;99.90
43185;DHT22;28803;52.308;19.096;2023-04-15T06:25:32;8.60;99.90
43185;DHT22;28803;52.308;19.096;2023-04-15T06:27:59;8.70;99.90
43185;DHT22;28803;52.308;19.096;2023-04-15T06:30:27;8.70;99.90
43185;DHT22;28803;52.308;19.096;2023-04-15T06:32:54;8.70;99.90
43185;DHT22;28803;52.308;19.096;2023-04-15T06:35:22;8.80;99.90
43185;DHT22;28803;52.308;19.096;2023-04-15T06:37:49;8.90;99.90
43185;DHT22;28803;52.308;19.096;2023-04-15T06:40:18;8.90;99.90
43185;DHT22;28803;52.308;19.096;2023-04-15T06:42:45;8.90;99.90
43185;DHT22;28803;52.308;19.096;2023-04-15T06:45:12;8.90;99.90
43185;DHT22;28803;52.308;19.096;2023-04-15T06:47:40;8.90;99.90
43185;DHT22;28803;52.308;19.096;2023-04-15T06:50:09;8.90;99.90
43185;DHT22;28803;52.308;19.096;2023-04-15T06:52:36;8.90;99.90
43185;DHT22;28803;52.308;19.096;2023-04-15T06:55:03;8.90;99.90
43185;DHT22;28803;52.308;19.096;2023-04-15T06:57:31;8.90;99.90
43185;DHT22;28803;52.308;19.096;2023-04-15T07:00:01;8.90;99.90
43185;DHT22;28803;52.308;19.096;2023-04-15T07:02:31;9.00;99.90
43185;DHT22;28803;52.308;19.096;2023-04-15T07:04:59;9.00;99.90
43185;DHT22;28803;52.308;19.096;2023-04-15T07:07:26;9.00;99.90
43185;DHT22;28803;52.308;19.096;2023-04-15T07:09:53;9.00;99.90
43185;DHT22;28803;52.308;19.096;2023-04-15T07:12:20;9.10;99.90
43185;DHT22;28803;52.308;19.096;2023-04-15T07:14:48;9.20;99.90
43185;DHT22;28803;52.308;19.096;2023-04-15T07:17:15;9.30;99.90
43185;DHT22;28803;52.308;19.096;2023-04-15T07:19:43;9.40;99.90
43185;DHT22;28803;52.308;19.096;2023-04-15T07:22:10;9.40;99.90
43185;DHT22;28803;52.308;19.096;2023-04-15T07:24:37;9.40;99.90
43185;DHT22;28803;52.308;19.096;2023-04-15T07:27:04;9.40;99.90
43185;DHT22;28803;52.308;19.096;2023-04-15T07:29:31;9.30;99.90
43185;DHT22;28803;52.308;19.096;2023-04-15T07:31:58;9.30;99.90
43185;DHT22;28803;52.308;19.096;2023-04-15T07:34:27;9.30;99.90
43185;DHT22;28803;52.308;19.096;2023-04-15T07:36:56;9.10;99.90
43185;DHT22;28803;52.308;19.096;2023-04-15T07:39:24;9.20;99.90
43185;DHT22;28803;52.308;19.096;2023-04-15T07:41:51;9.10;99.90
43185;DHT22;28803;52.308;19.096;2023-04-15T07:44:18;9.20;99.90
43185;DHT22;28803;52.308;19.096;2023-04-15T07:46:46;9.20;99.90
43185;DHT22;28803;52.308;19.096;2023-04-15T07:49:14;9.10;99.90
43185;DHT22;28803;52.308;19.096;2023-04-15T07:51:41;9.10;99.90
43185;DHT22;28803;52.308;19.096;2023-04-15T07:54:08;9.10;99.90
43185;DHT22;28803;52.308;19.096;2023-04-15T07:56:35;9.10;99.90
43185;DHT22;28803;52.308;19.096;2023-04-15T07:59:03;9.10;99.90
43185;DHT22;28803;52.308;19.096;2023-04-15T08:01:32;9.20;99.90
43185;DHT22;28803;52.308;19.096;2023-04-15T08:03:59;9.20;99.90
43185;DHT22;28803;52.308;19.096;2023-04-15T08:06:26;9.30;99.90
43185;DHT22;28803;52.308;19.096;2023-04-15T08:08:54;9.30;99.90
43185;DHT22;28803;52.308;19.096;2023-04-15T08:11:22;9.30;99.90
43185;DHT22;28803;52.308;19.096;2023-04-15T08:13:51;9.40;99.90
43185;DHT22;28803;52.308;19.096;2023-04-15T08:16:20;9.40;99.90
43185;DHT22;28803;52.308;19.096;2023-04-15T08:18:49;9.40;99.90
43185;DHT22;28803;52.308;19.096;2023-04-15T08:21:18;9.40;99.90
43185;DHT22;28803;52.308;19.096;2023-04-15T08:23:46;9.40;99.90
43185;DHT22;28803;52.308;19.096;2023-04-15T08:26:15;9.40;99.90
43185;DHT22;28803;52.308;19.096;2023-04-15T08:28:44;9.50;99.90
43185;DHT22;28803;52.308;19.096;2023-04-15T08:31:13;9.40;99.90
43185;DHT22;28803;52.308;19.096;2023-04-15T08:33:41;9.40;99.90
43185;DHT22;28803;52.308;19.096;2023-04-15T08:36:09;9.40;99.90
43185;DHT22;28803;52.308;19.096;2023-04-15T08:38:37;9.50;99.90
43185;DHT22;28803;52.308;19.096;2023-04-15T08:41:17;9.50;99.90
43185;DHT22;28803;52.308;19.096;2023-04-15T08:46:20;9.50;99.90
43185;DHT22;28803;52.308;19.096;2023-04-15T08:48:49;9.50;99.90
43185;DHT22;28803;52.308;19.096;2023-04-15T08:51:17;9.60;99.90
43185;DHT22;28803;52.308;19.096;2023-04-15T08:53:45;9.60;99.90
43185;DHT22;28803;52.308;19.096;2023-04-15T08:56:14;9.50;99.90
43185;DHT22;28803;52.308;19.096;2023-04-15T08:58:43;9.60;99.90
43185;DHT22;28803;52.308;19.096;2023-04-15T09:01:12;9.70;99.90
43185;DHT22;28803;52.308;19.096;2023-04-15T09:03:39;9.70;99.90
43185;DHT22;28803;52.308;19.096;2023-04-15T09:06:07;9.90;99.90
43185;DHT22;28803;52.308;19.096;2023-04-15T09:08:35;9.90;99.90
43185;DHT22;28803;52.308;19.096;2023-04-15T09:11:02;9.90;99.90
43185;DHT22;28803;52.308;19.096;2023-04-15T09:13:30;10.00;99.90
43185;DHT22;28803;52.308;19.096;2023-04-15T09:15:57;10.00;99.90
43185;DHT22;28803;52.308;19.096;2023-04-15T09:18:35;10.00;99.90
43185;DHT22;28803;52.308;19.096;2023-04-15T09:21:08;9.90;99.90
43185;DHT22;28803;52.308;19.096;2023-04-15T09:24:03;9.90;99.90
43185;DHT22;28803;52.308;19.096;2023-04-15T09:26:37;9.90;99.90
43185;DHT22;28803;52.308;19.096;2023-04-15T09:29:08;10.00;99.90
43185;DHT22;28803;52.308;19.096;2023-04-15T09:31:36;10.00;99.90
43185;DHT22;28803;52.308;19.096;2023-04-15T09:34:04;9.90;99.90
43185;DHT22;28803;52.308;19.096;2023-04-15T09:37:03;9.90;99.90
43185;DHT22;28803;52.308;19.096;2023-04-15T09:42:14;9.80;99.90
43185;DHT22;28803;52.308;19.096;2023-04-15T09:44:42;10.00;99.90
43185;DHT22;28803;52.308;19.096;2023-04-15T09:47:09;10.00;99.90
43185;DHT22;28803;52.308;19.096;2023-04-15T09:49:56;10.00;99.90
43185;DHT22;28803;52.308;19.096;2023-04-15T09:52:24;10.10;99.90
43185;DHT22;28803;52.308;19.096;2023-04-15T09:54:53;10.10;99.90
43185;DHT22;28803;52.308;19.096;2023-04-15T09:57:22;10.10;99.90
43185;DHT22;28803;52.308;19.096;2023-04-15T09:59:50;10.20;99.90
43185;DHT22;28803;52.308;19.096;2023-04-15T10:02:21;10.30;99.90
43185;DHT22;28803;52.308;19.096;2023-04-15T10:04:49;10.30;99.90
43185;DHT22;28803;52.308;19.096;2023-04-15T10:07:18;10.30;99.90
43185;DHT22;28803;52.308;19.096;2023-04-15T10:09:47;10.30;99.90
43185;DHT22;28803;52.308;19.096;2023-04-15T10:12:16;10.30;99.90
43185;DHT22;28803;52.308;19.096;2023-04-15T10:14:45;10.30;99.90
43185;DHT22;28803;52.308;19.096;2023-04-15T10:17:17;10.10;99.90
43185;DHT22;28803;52.308;19.096;2023-04-15T10:19:45;10.10;99.90
43185;DHT22;28803;52.308;19.096;2023-04-15T10:22:13;10.10;99.90
43185;DHT22;28803;52.308;19.096;2023-04-15T10:24:42;10.30;99.90
43185;DHT22;28803;52.308;19.096;2023-04-15T10:27:11;10.30;99.90
43185;DHT22;28803;52.308;19.096;2023-04-15T10:29:38;10.20;99.90
43185;DHT22;28803;52.308;19.096;2023-04-15T10:32:06;10.10;99.90
43185;DHT22;28803;52.308;19.096;2023-04-15T10:34:34;10.10;99.90
43185;DHT22;28803;52.308;19.096;2023-04-15T10:37:02;10.10;99.90
43185;DHT22;28803;52.308;19.096;2023-04-15T10:42:16;10.00;99.90
43185;DHT22;28803;52.308;19.096;2023-04-15T10:44:48;10.00;99.90
43185;DHT22;28803;52.308;19.096;2023-04-15T10:47:18;9.90;99.90
43185;DHT22;28803;52.308;19.096;2023-04-15T10:49:51;9.80;99.90
43185;DHT22;28803;52.308;19.096;2023-04-15T10:52:23;9.80;99.90
43185;DHT22;28803;52.308;19.096;2023-04-15T10:55:02;9.70;99.90
43185;DHT22;28803;52.308;19.096;2023-04-15T10:57:36;9.80;99.90
43185;DHT22;28803;52.308;19.096;2023-04-15T11:00:11;9.70;99.90
43185;DHT22;28803;52.308;19.096;2023-04-15T11:02:55;9.90;99.90
43185;DHT22;28803;52.308;19.096;2023-04-15T11:05:50;9.90;99.90
43185;DHT22;28803;52.308;19.096;2023-04-15T11:08:18;9.90;99.90
43185;DHT22;28803;52.308;19.096;2023-04-15T11:13:19;9.90;99.90
43185;DHT22;28803;52.308;19.096;2023-04-15T11:15:48;10.00;99.90
43185;DHT22;28803;52.308;19.096;2023-04-15T11:18:24;10.10;99.90
43185;DHT22;28803;52.308;19.096;2023-04-15T11:21:01;10.00;99.90
43185;DHT22;28803;52.308;19.096;2023-04-15T11:23:39;10.10;99.90
43185;DHT22;28803;52.308;19.096;2023-04-15T11:26:10;10.10;99.90
43185;DHT22;28803;52.308;19.096;2023-04-15T11:28:44;10.10;99.90
43185;DHT22;28803;52.308;19.096;2023-04-15T11:31:15;10.10;99.90
43185;DHT22;28803;52.308;19.096;2023-04-15T11:34:02;10.20;99.90
43185;DHT22;28803;52.308;19.096;2023-04-15T11:36:30;10.20;99.90
43185;DHT22;28803;52.308;19.096;2023-04-15T11:39:00;10.20;99.90
43185;DHT22;28803;52.308;19.096;2023-04-15T11:41:28;10.20;99.90
43185;DHT22;28803;52.308;19.096;2023-04-15T11:43:55;10.20;99.90
43185;DHT22;28803;52.308;19.096;2023-04-15T11:46:28;10.20;99.90
43185;DHT22;28803;52.308;19.096;2023-04-15T11:48:56;10.10;99.90
43185;DHT22;28803;52.308;19.096;2023-04-15T11:51:24;10.10;99.90
43185;DHT22;28803;52.308;19.096;2023-04-15T11:53:51;10.20;99.90
43185;DHT22;28803;52.308;19.096;2023-04-15T11:56:23;10.20;99.90
43185;DHT22;28803;52.308;19.096;2023-04-15T11:58:55;10.20;99.90
43185;DHT22;28803;52.308;19.096;2023-04-15T12:01:50;10.30;99.90
43185;DHT22;28803;52.308;19.096;2023-04-15T12:04:18;10.50;99.90
43185;DHT22;28803;52.308;19.096;2023-04-15T12:06:51;10.60;99.90
43185;DHT22;28803;52.308;19.096;2023-04-15T12:09:19;10.60;99.90
43185;DHT22;28803;52.308;19.096;2023-04-15T12:11:51;10.70;99.90
43185;DHT22;28803;52.308;19.096;2023-04-15T12:14:27;10.70;99.90
43185;DHT22;28803;52.308;19.096;2023-04-15T12:17:03;10.60;99.90
43185;DHT22;28803;52.308;19.096;2023-04-15T12:22:03;10.30;99.90
43185;DHT22;28803;52.308;19.096;2023-04-15T12:24:32;10.30;99.90
43185;DHT22;28803;52.308;19.096;2023-04-15T12:27:07;10.40;99.90
43185;DHT22;28803;52.308;19.096;2023-04-15T12:29:37;10.40;99.90
43185;DHT22;28803;52.308;19.096;2023-04-15T12:32:13;10.40;99.90
43185;DHT22;28803;52.308;19.096;2023-04-15T12:37:10;10.50;99.90
43185;DHT22;28803;52.308;19.096;2023-04-15T12:39:40;10.60;99.90
43185;DHT22;28803;52.308;19.096;2023-04-15T12:42:08;10.80;99.90
43185;DHT22;28803;52.308;19.096;2023-04-15T12:44:36;11.10;99.90
43185;DHT22;28803;52.308;19.096;2023-04-15T12:47:04;11.20;99.90
43185;DHT22;28803;52.308;19.096;2023-04-15T12:49:32;11.30;99.90
43185;DHT22;28803;52.308;19.096;2023-04-15T12:52:00;11.20;92.10
43185;DHT22;28803;52.308;19.096;2023-04-15T12:54:28;11.10;93.90
43185;DHT22;28803;52.308;19.096;2023-04-15T12:56:56;11.30;98.30
43185;DHT22;28803;52.308;19.096;2023-04-15T12:59:24;11.30;98.00
43185;DHT22;28803;52.308;19.096;2023-04-15T13:01:53;11.40;95.80
43185;DHT22;28803;52.308;19.096;2023-04-15T13:04:21;11.40;96.60
43185;DHT22;28803;52.308;19.096;2023-04-15T13:06:48;11.50;63.70
43185;DHT22;28803;52.308;19.096;2023-04-15T13:10:26;11.50;54.40
43185;DHT22;28803;52.308;19.096;2023-04-15T13:12:54;11.50;48.00
43185;DHT22;28803;52.308;19.096;2023-04-15T13:15:22;11.50;49.70
43185;DHT22;28803;52.308;19.096;2023-04-15T13:17:50;11.60;77.60
43185;DHT22;28803;52.308;19.096;2023-04-15T13:20:17;11.60;25.00
43185;DHT22;28803;52.308;19.096;2023-04-15T13:22:45;11.50;3.90
43185;DHT22;28803;52.308;19.096;2023-04-15T13:25:12;11.40;5.80
43185;DHT22;28803;52.308;19.096;2023-04-15T13:27:39;11.30;1.00
43185;DHT22;28803;52.308;19.096;2023-04-15T13:30:07;11.30;1.00
43185;DHT22;28803;52.308;19.096;2023-04-15T13:32:34;11.20;1.00
43185;DHT22;28803;52.308;19.096;2023-04-15T13:35:01;11.10;1.00
43185;DHT22;28803;52.308;19.096;2023-04-15T13:37:30;11.00;1.00
43185;DHT22;28803;52.308;19.096;2023-04-15T13:39:57;11.10;18.00
43185;DHT22;28803;52.308;19.096;2023-04-15T13:42:24;11.10;30.40
43185;DHT22;28803;52.308;19.096;2023-04-15T13:44:53;11.10;34.20
43185;DHT22;28803;52.308;19.096;2023-04-15T13:47:20;11.10;45.60
43185;DHT22;28803;52.308;19.096;2023-04-15T13:49:47;11.00;24.60
43185;DHT22;28803;52.308;19.096;2023-04-15T13:52:15;10.90;17.50
43185;DHT22;28803;52.308;19.096;2023-04-15T13:54:42;10.80;25.70
43185;DHT22;28803;52.308;19.096;2023-04-15T13:57:09;10.80;34.80
43185;DHT22;28803;52.308;19.096;2023-04-15T13:59:36;10.80;47.00
43185;DHT22;28803;52.308;19.096;2023-04-15T14:02:04;10.90;67.70
43185;DHT22;28803;52.308;19.096;2023-04-15T14:04:31;10.90;63.30
43185;DHT22;28803;52.308;19.096;2023-04-15T14:06:59;11.00;56.50
43185;DHT22;28803;52.308;19.096;2023-04-15T14:09:26;11.00;59.90
43185;DHT22;28803;52.308;19.096;2023-04-15T14:11:54;11.20;67.20
43185;DHT22;28803;52.308;19.096;2023-04-15T14:14:22;11.10;65.20
43185;DHT22;28803;52.308;19.096;2023-04-15T14:16:49;11.30;59.40
43185;DHT22;28803;52.308;19.096;2023-04-15T14:19:16;11.30;58.70
43185;DHT22;28803;52.308;19.096;2023-04-15T14:21:44;11.30;42.60
43185;DHT22;28803;52.308;19.096;2023-04-15T14:24:11;11.30;42.80
43185;DHT22;28803;52.308;19.096;2023-04-15T14:26:38;11.40;35.80
43185;DHT22;28803;52.308;19.096;2023-04-15T14:29:05;11.30;25.10
43185;DHT22;28803;52.308;19.096;2023-04-15T14:31:33;11.20;31.50
43185;DHT22;28803;52.308;19.096;2023-04-15T14:34:00;11.30;46.20
43185;DHT22;28803;52.308;19.096;2023-04-15T14:36:28;11.40;34.00
43185;DHT22;28803;52.308;19.096;2023-04-15T14:38:55;11.30;23.20
43185;DHT22;28803;52.308;19.096;2023-04-15T14:41:23;11.30;23.80
43185;DHT22;28803;52.308;19.096;2023-04-15T14:43:50;11.20;34.30
43185;DHT22;28803;52.308;19.096;2023-04-15T14:46:18;11.10;19.30
43185;DHT22;28803;52.308;19.096;2023-04-15T14:48:45;10.90;14.70
43185;DHT22;28803;52.308;19.096;2023-04-15T14:51:13;10.70;13.50
43185;DHT22;28803;52.308;19.096;2023-04-15T14:53:40;10.50;26.80
43185;DHT22;28803;52.308;19.096;2023-04-15T14:56:08;10.50;45.10
43185;DHT22;28803;52.308;19.096;2023-04-15T14:58:35;10.40;52.60
43185;DHT22;28803;52.308;19.096;2023-04-15T15:01:03;10.30;65.40
43185;DHT22;28803;52.308;19.096;2023-04-15T15:03:30;10.30;71.40
43185;DHT22;28803;52.308;19.096;2023-04-15T15:05:58;10.20;76.40
43185;DHT22;28803;52.308;19.096;2023-04-15T15:08:25;10.20;77.40
43185;DHT22;28803;52.308;19.096;2023-04-15T15:10:53;10.10;86.50
43185;DHT22;28803;52.308;19.096;2023-04-15T15:13:20;10.00;79.30
43185;DHT22;28803;52.308;19.096;2023-04-15T15:15:47;10.00;90.10
43185;DHT22;28803;52.308;19.096;2023-04-15T15:18:16;10.10;97.60
43185;DHT22;28803;52.308;19.096;2023-04-15T15:20:45;10.00;91.00
43185;DHT22;28803;52.308;19.096;2023-04-15T15:23:13;10.00;98.90
43185;DHT22;28803;52.308;19.096;2023-04-15T15:25:40;10.10;99.90
43185;DHT22;28803;52.308;19.096;2023-04-15T15:28:07;10.30;99.90
43185;DHT22;28803;52.308;19.096;2023-04-15T15:30:35;10.40;99.90
43185;DHT22;28803;52.308;19.096;2023-04-15T15:33:02;10.30;99.90
43185;DHT22;28803;52.308;19.096;2023-04-15T15:35:31;10.30;98.40
43185;DHT22;28803;52.308;19.096;2023-04-15T15:37:58;10.20;91.30
43185;DHT22;28803;52.308;19.096;2023-04-15T15:40:26;10.10;87.60
43185;DHT22;28803;52.308;19.096;2023-04-15T15:42:53;10.00;81.60
43185;DHT22;28803;52.308;19.096;2023-04-15T15:45:21;9.90;93.10
43185;DHT22;28803;52.308;19.096;2023-04-15T15:47:48;9.90;99.90
43185;DHT22;28803;52.308;19.096;2023-04-15T15:50:16;9.90;99.90
43185;DHT22;28803;52.308;19.096;2023-04-15T15:52:43;10.00;99.90